createdAt,value
2022-12-06T00:01:35.452Z,100765.97
2022-12-06T00:04:24.535Z,100749.78
2022-12-06T00:07:02.419Z,100752.19
2022-12-06T00:09:32.682Z,100751.75
2022-12-06T00:12:02.378Z,100743.56
2022-12-06T00:14:29.545Z,100751.03
2022-12-06T00:16:56.919Z,100747.22
2022-12-06T00:19:24.924Z,100747.22
2022-12-06T00:21:52.186Z,100741.66
2022-12-06T00:24:22.529Z,100737.34
2022-12-06T00:26:50.460Z,100728.59
2022-12-06T00:29:20.965Z,100734.81
2022-12-06T00:31:48.574Z,100727.97
2022-12-06T00:34:15.551Z,100723.66
2022-12-06T00:36:43.467Z,100730.81
2022-12-06T00:39:13.143Z,100730.94
2022-12-06T00:41:41.037Z,100730.59
2022-12-06T00:44:09.116Z,100737.16
2022-12-06T00:46:37.017Z,100734.41
2022-12-06T00:49:05.405Z,100722.09
2022-12-06T00:51:34.805Z,100718.31
2022-12-06T00:54:02.583Z,100718.31
2022-12-06T00:56:30.018Z,100708.63
2022-12-06T00:58:57.067Z,100713.16
2022-12-06T01:01:29.614Z,100705.16
2022-12-06T01:04:01.997Z,100699.06
2022-12-06T01:06:32.133Z,100699.06
2022-12-06T01:09:01.588Z,100694.75
2022-12-06T01:11:30.151Z,100712.44
2022-12-06T01:13:57.795Z,100700.22
2022-12-06T01:16:30.299Z,100696.88
2022-12-06T01:19:00.029Z,100689.09
2022-12-06T01:21:28.348Z,100692.66
2022-12-06T01:23:55.653Z,100687.63
2022-12-06T01:26:24.331Z,100677.84
2022-12-06T01:28:51.719Z,100678.78
2022-12-06T01:31:19.174Z,100681.50
2022-12-06T01:33:46.695Z,100680.47
2022-12-06T01:36:21.668Z,100679.53
2022-12-06T01:38:51.344Z,100685.50
2022-12-06T01:41:23.077Z,100678.34
2022-12-06T01:43:50.481Z,100670.59
2022-12-06T01:46:32.776Z,100677.19
2022-12-06T01:49:11.641Z,100677.69
2022-12-06T01:51:43.184Z,100691.56
2022-12-06T01:54:13.209Z,100668.75
2022-12-06T01:56:40.826Z,100663.38
2022-12-06T01:59:09.590Z,100657.78
2022-12-06T02:01:39.459Z,100665.56
2022-12-06T02:04:07.216Z,100660.31
2022-12-06T02:06:35.305Z,100657.16
2022-12-06T02:09:06.010Z,100663.38
2022-12-06T02:11:35.493Z,100660.75
2022-12-06T02:14:07.437Z,100651.06
2022-12-06T02:16:53.997Z,100641.41
2022-12-06T02:19:23.810Z,100645.94
2022-12-06T02:22:38.291Z,100645.19
2022-12-06T02:25:11.332Z,100626.91
2022-12-06T02:27:53.632Z,100637.31
2022-12-06T02:30:48.218Z,100625.84
2022-12-06T02:33:34.655Z,100637.41
2022-12-06T02:36:28.181Z,100620.28
2022-12-06T02:39:09.973Z,100621.97
2022-12-06T02:41:42.270Z,100622.19
2022-12-06T02:44:18.324Z,100616.09
2022-12-06T02:46:46.885Z,100620.53
2022-12-06T02:49:15.256Z,100610.97
2022-12-06T02:51:43.192Z,100602.13
2022-12-06T02:54:11.853Z,100610.13
2022-12-06T02:56:38.947Z,100607.25
2022-12-06T02:59:05.888Z,100604.75
2022-12-06T03:01:37.414Z,100619.69
2022-12-06T03:04:07.032Z,100611.78
2022-12-06T03:06:43.020Z,100605.69
2022-12-06T03:09:24.226Z,100607.59
2022-12-06T03:12:08.537Z,100605.91
2022-12-06T03:15:01.865Z,100609.69
2022-12-06T03:17:50.904Z,100604.66
2022-12-06T03:20:29.905Z,100609.06
2022-12-06T03:23:06.708Z,100618.00
2022-12-06T03:25:37.608Z,100616.34
2022-12-06T03:28:09.380Z,100628.63
2022-12-06T03:30:36.569Z,100626.75
2022-12-06T03:33:05.061Z,100603.41
2022-12-06T03:35:35.032Z,100621.81
2022-12-06T03:38:11.153Z,100608.06
2022-12-06T03:40:43.025Z,100601.44
2022-12-06T03:43:10.388Z,100600.72
2022-12-06T03:45:49.913Z,100599.88
2022-12-06T03:48:50.811Z,100594.84
2022-12-06T03:51:25.785Z,100589.03
2022-12-06T03:53:54.533Z,100584.97
2022-12-06T03:56:23.729Z,100583.81
2022-12-06T03:58:50.898Z,100574.16
2022-12-06T04:01:18.191Z,100571.34
2022-12-06T04:03:45.349Z,100574.28
2022-12-06T04:06:12.736Z,100596.22
2022-12-06T04:08:40.177Z,100585.94
2022-12-06T04:11:07.723Z,100558.84
2022-12-06T04:13:35.931Z,100573.44
2022-12-06T04:16:03.648Z,100577.34
2022-12-06T04:18:30.644Z,100566.84
2022-12-06T04:21:23.277Z,100570.63
2022-12-06T04:23:52.808Z,100569.91
2022-12-06T04:26:22.036Z,100574.53
2022-12-06T04:29:09.108Z,100562.34
2022-12-06T04:31:55.414Z,100569.66
2022-12-06T04:34:41.388Z,100552.66
2022-12-06T04:37:27.646Z,100563.25
2022-12-06T04:39:54.683Z,100546.69
2022-12-06T04:42:41.150Z,100548.56
2022-12-06T04:45:08.745Z,100541.63
2022-12-06T04:47:35.852Z,100542.78
2022-12-06T04:50:03.179Z,100541.97
2022-12-06T04:52:35.471Z,100549.00
2022-12-06T04:55:05.277Z,100545.22
2022-12-06T04:57:32.165Z,100555.50
2022-12-06T04:59:59.460Z,100550.97
2022-12-06T05:02:29.263Z,100550.78
2022-12-06T05:05:01.246Z,100544.34
2022-12-06T05:07:29.966Z,100550.34
2022-12-06T05:09:57.092Z,100550.13
2022-12-06T05:12:24.245Z,100556.78
2022-12-06T05:14:51.216Z,100568.84
2022-12-06T05:17:18.135Z,100553.59
2022-12-06T05:19:45.524Z,100548.13
2022-12-06T05:22:12.839Z,100559.38
2022-12-06T05:24:40.434Z,100548.66
2022-12-06T05:27:07.405Z,100548.66
2022-12-06T05:29:34.443Z,100539.50
2022-12-06T05:32:01.593Z,100548.75
2022-12-06T05:34:28.644Z,100536.47
2022-12-06T05:36:56.601Z,100531.09
2022-12-06T05:39:23.859Z,100527.44
2022-12-06T05:41:50.849Z,100537.81
2022-12-06T05:44:18.025Z,100524.91
2022-12-06T05:46:45.104Z,100534.47
2022-12-06T05:49:12.065Z,100532.78
2022-12-06T05:51:39.433Z,100527.44
2022-12-06T05:54:29.378Z,100535.31
2022-12-06T05:57:17.254Z,100545.81
2022-12-06T05:59:44.507Z,100538.44
2022-12-06T06:02:11.503Z,100522.69
2022-12-06T06:04:38.553Z,100528.56
2022-12-06T06:07:05.790Z,100534.53
2022-12-06T06:09:32.707Z,100515.41
2022-12-06T06:11:59.673Z,100514.13
2022-12-06T06:14:26.823Z,100524.44
2022-12-06T06:16:53.832Z,100523.69
2022-12-06T06:19:23.946Z,100510.44
2022-12-06T06:21:51.096Z,100521.56
2022-12-06T06:24:18.094Z,100509.19
2022-12-06T06:26:45.030Z,100508.03
2022-12-06T06:29:12.767Z,100508.75
2022-12-06T06:31:39.899Z,100514.63
2022-12-06T06:34:06.902Z,100521.44
2022-12-06T06:36:33.873Z,100540.00
2022-12-06T06:39:01.089Z,100511.50
2022-12-06T06:41:28.097Z,100517.38
2022-12-06T06:44:03.146Z,100517.38
2022-12-06T06:46:30.222Z,100516.75
2022-12-06T06:48:57.302Z,100522.41
2022-12-06T06:51:24.374Z,100529.00
2022-12-06T06:53:51.478Z,100522.69
2022-12-06T06:56:20.285Z,100534.19
2022-12-06T06:58:47.465Z,100536.59
2022-12-06T07:01:20.827Z,100529.34
2022-12-06T07:03:51.938Z,100529.09
2022-12-06T07:06:19.316Z,100526.00
2022-12-06T07:08:47.228Z,100531.84
2022-12-06T07:11:15.543Z,100525.88
2022-12-06T07:13:48.198Z,100523.78
2022-12-06T07:16:20.739Z,100510.41
2022-12-06T07:18:48.014Z,100518.78
2022-12-06T07:21:17.571Z,100514.34
2022-12-06T07:23:47.526Z,100515.22
2022-12-06T07:26:17.661Z,100514.84
2022-12-06T07:28:51.509Z,100522.44
2022-12-06T07:31:22.827Z,100512.84
2022-12-06T07:34:01.559Z,100519.16
2022-12-06T07:36:31.737Z,100518.00
2022-12-06T07:39:00.412Z,100516.22
2022-12-06T07:41:48.525Z,100515.38
2022-12-06T07:44:56.911Z,100521.84
2022-12-06T07:47:44.995Z,100513.09
2022-12-06T07:50:23.778Z,100507.16
2022-12-06T07:52:51.258Z,100518.88
2022-12-06T07:55:18.921Z,100508.09
2022-12-06T07:57:46.820Z,100511.78
2022-12-06T08:00:16.435Z,100501.97
2022-12-06T08:02:43.779Z,100499.59
2022-12-06T08:05:12.270Z,100503.16
2022-12-06T08:07:41.471Z,100502.44
2022-12-06T08:10:11.813Z,100508.03
2022-12-06T08:12:40.165Z,100507.22
2022-12-06T08:15:13.135Z,100500.00
2022-12-06T08:17:43.388Z,100497.72
2022-12-06T08:20:11.261Z,100504.66
2022-12-06T08:22:39.378Z,100503.94
2022-12-06T08:25:07.220Z,100481.56
2022-12-06T08:27:34.226Z,100483.22
2022-12-06T08:30:05.172Z,100494.88
2022-12-06T08:32:32.515Z,100478.91
2022-12-06T08:34:59.567Z,100466.44
2022-12-06T08:37:26.694Z,100468.44
2022-12-06T08:39:53.759Z,100469.03
2022-12-06T08:42:25.448Z,100446.97
2022-12-06T08:44:54.656Z,100463.38
2022-12-06T08:47:24.120Z,100451.16
2022-12-06T08:49:51.271Z,100450.19
2022-12-06T08:52:21.652Z,100450.94
2022-12-06T08:54:48.958Z,100450.09
2022-12-06T08:57:16.172Z,100460.75
2022-12-06T08:59:43.473Z,100445.69
2022-12-06T09:02:12.663Z,100457.63
2022-12-06T09:04:40.061Z,100451.25
2022-12-06T09:07:11.460Z,100447.66
2022-12-06T09:09:39.168Z,100435.22
2022-12-06T09:12:06.798Z,100452.81
2022-12-06T09:14:34.922Z,100455.31
2022-12-06T09:17:01.826Z,100445.94
2022-12-06T09:19:29.080Z,100438.47
2022-12-06T09:21:56.179Z,100446.72
2022-12-06T09:24:25.587Z,100427.03
2022-12-06T09:26:52.652Z,100432.63
2022-12-06T09:29:24.133Z,100421.94
2022-12-06T09:31:57.345Z,100436.28
2022-12-06T09:34:25.745Z,100422.97
2022-12-06T09:37:11.241Z,100423.66
2022-12-06T09:39:53.641Z,100422.34
2022-12-06T09:42:27.185Z,100421.72
2022-12-06T09:45:22.304Z,100406.34
2022-12-06T09:48:10.729Z,100408.59
2022-12-06T09:50:50.026Z,100405.84
2022-12-06T09:53:55.153Z,100422.50
2022-12-06T09:56:47.787Z,100429.72
2022-12-06T09:59:30.020Z,100406.41
2022-12-06T10:02:29.742Z,100402.16
2022-12-06T10:05:08.713Z,100394.59
2022-12-06T10:07:55.076Z,100403.91
2022-12-06T10:10:52.092Z,100390.03
2022-12-06T10:13:49.926Z,100390.34
2022-12-06T10:16:47.723Z,100387.03
2022-12-06T10:19:45.511Z,100381.91
2022-12-06T10:22:16.381Z,100392.06
2022-12-06T10:25:12.513Z,100379.19
2022-12-06T10:28:04.123Z,100371.69
2022-12-06T10:30:36.578Z,100382.13
2022-12-06T10:33:18.080Z,100390.19
2022-12-06T10:35:54.735Z,100363.22
2022-12-06T10:38:38.872Z,100363.53
2022-12-06T10:41:48.589Z,100357.69
2022-12-06T10:44:21.471Z,100365.47
2022-12-06T10:47:05.405Z,100351.16
2022-12-06T10:49:37.182Z,100345.44
2022-12-06T10:52:35.101Z,100351.28
2022-12-06T10:55:11.459Z,100345.72
2022-12-06T10:58:03.959Z,100346.41
2022-12-06T11:00:38.271Z,100332.63
2022-12-06T11:03:24.394Z,100332.91
2022-12-06T11:06:07.746Z,100333.75
2022-12-06T11:08:40.002Z,100327.34
2022-12-06T11:11:15.881Z,100333.06
2022-12-06T11:13:51.207Z,100333.47
2022-12-06T11:16:33.693Z,100335.53
2022-12-06T11:19:19.712Z,100331.50
2022-12-06T11:21:54.314Z,100331.50
2022-12-06T11:24:52.592Z,100323.41
2022-12-06T11:27:38.792Z,100336.22
2022-12-06T11:30:23.981Z,100345.69
2022-12-06T11:32:52.674Z,100343.03
2022-12-06T11:35:26.735Z,100319.50
2022-12-06T11:38:01.928Z,100302.41
2022-12-06T11:40:42.488Z,100308.53
2022-12-06T11:43:26.875Z,100317.84
2022-12-06T11:45:55.745Z,100328.28
2022-12-06T11:48:31.586Z,100324.13
2022-12-06T11:50:58.983Z,100312.25
2022-12-06T11:53:39.628Z,100309.31
2022-12-06T11:56:15.354Z,100303.34
2022-12-06T11:58:50.351Z,100292.22
2022-12-06T12:01:17.298Z,100296.97
2022-12-06T12:03:47.016Z,100308.81
2022-12-06T12:06:25.941Z,100301.69
2022-12-06T12:09:06.261Z,100320.78
2022-12-06T12:11:37.646Z,100300.88
2022-12-06T12:14:15.608Z,100310.19
2022-12-06T12:16:58.222Z,100308.94
2022-12-06T12:19:31.954Z,100309.94
2022-12-06T12:22:13.329Z,100313.97
2022-12-06T12:25:18.051Z,100304.78
2022-12-06T12:27:40.849Z,100308.69
2022-12-06T12:30:22.963Z,100308.97
2022-12-06T12:33:09.179Z,100307.03
2022-12-06T12:35:53.325Z,100309.81
2022-12-06T12:38:41.344Z,100303.00
2022-12-06T12:41:44.188Z,100305.63
2022-12-06T12:44:37.911Z,100314.97
2022-12-06T12:47:20.387Z,100311.91
2022-12-06T12:50:05.451Z,100301.63
2022-12-06T12:52:42.453Z,100290.59
2022-12-06T12:55:12.854Z,100299.63
2022-12-06T12:57:41.065Z,100306.72
2022-12-06T13:00:16.917Z,100300.88
2022-12-06T13:03:34.450Z,100301.44
2022-12-06T13:06:06.966Z,100285.59
2022-12-06T13:08:38.819Z,100291.72
2022-12-06T13:11:10.069Z,100294.34
2022-12-06T13:13:54.377Z,100297.13
2022-12-06T13:16:41.471Z,100292.13
2022-12-06T13:19:23.536Z,100291.16
2022-12-06T13:21:57.300Z,100294.63
2022-12-06T13:24:32.866Z,100302.28
2022-12-06T13:27:12.608Z,100289.31
2022-12-06T13:30:14.208Z,100291.84
2022-12-06T13:32:58.250Z,100271.22
2022-12-06T13:35:30.740Z,100288.94
2022-12-06T13:38:03.318Z,100291.84
2022-12-06T13:40:48.161Z,100284.19
2022-12-06T13:43:24.469Z,100276.81
2022-12-06T13:46:28.737Z,100276.53
2022-12-06T13:49:01.712Z,100275.72
2022-12-06T13:51:32.608Z,100287.25
2022-12-06T13:54:08.355Z,100293.78
2022-12-06T13:56:35.572Z,100291.88
2022-12-06T13:59:25.840Z,100278.22
2022-12-06T14:01:59.250Z,100255.00
2022-12-06T14:07:02.447Z,100287.41
2022-12-06T14:09:41.025Z,100266.09
2022-12-06T14:12:23.044Z,100282.13
2022-12-06T14:15:01.814Z,100280.84
2022-12-06T14:20:32.036Z,100266.50
2022-12-06T14:22:59.238Z,100275.13
2022-12-06T14:25:33.098Z,100265.25
2022-12-06T14:28:13.337Z,100271.38
2022-12-06T14:30:40.862Z,100262.91
2022-12-06T14:33:23.835Z,100265.84
2022-12-06T14:35:55.580Z,100271.13
2022-12-06T14:38:52.382Z,100264.56
2022-12-06T14:41:38.874Z,100261.25
2022-12-06T14:44:17.162Z,100262.47
2022-12-06T14:46:49.471Z,100269.56
2022-12-06T14:49:39.744Z,100267.38
2022-12-06T14:52:29.946Z,100265.81
2022-12-06T14:55:18.306Z,100269.16
2022-12-06T14:57:56.485Z,100264.97
2022-12-06T15:00:30.968Z,100266.66
2022-12-06T15:03:18.570Z,100258.28
2022-12-06T15:05:50.615Z,100261.06
2022-12-06T15:08:27.256Z,100265.38
2022-12-06T15:10:58.641Z,100260.22
2022-12-06T15:13:26.338Z,100261.91
2022-12-06T15:16:22.864Z,100263.56
2022-12-06T15:19:00.708Z,100252.16
2022-12-06T15:21:27.626Z,100259.41
2022-12-06T15:24:00.286Z,100263.72
2022-12-06T15:26:27.522Z,100257.72
2022-12-06T15:28:54.816Z,100266.50
2022-12-06T15:31:26.658Z,100270.97
2022-12-06T15:33:54.725Z,100247.19
2022-12-06T15:36:27.640Z,100252.47
2022-12-06T15:38:54.556Z,100252.19
2022-12-06T15:41:27.733Z,100256.50
2022-12-06T15:43:57.857Z,100249.81
2022-12-06T15:46:32.931Z,100244.78
2022-12-06T15:49:00.028Z,100256.50
2022-12-06T15:51:31.372Z,100263.44
2022-12-06T15:53:59.606Z,100262.91
2022-12-06T15:56:30.651Z,100246.47
2022-12-06T15:58:57.858Z,100247.88
2022-12-06T16:01:43.337Z,100248.44
2022-12-06T16:04:21.945Z,100239.66
2022-12-06T16:06:49.686Z,100238.84
2022-12-06T16:09:19.377Z,100241.75
2022-12-06T16:11:50.250Z,100232.72
2022-12-06T16:14:20.387Z,100263.47
2022-12-06T16:16:47.921Z,100242.31
2022-12-06T16:19:17.607Z,100250.25
2022-12-06T16:21:57.751Z,100249.41
2022-12-06T16:24:27.885Z,100252.19
2022-12-06T16:26:56.381Z,100236.75
2022-12-06T16:29:25.289Z,100246.22
2022-12-06T16:31:54.432Z,100234.81
2022-12-06T16:34:21.463Z,100244.69
2022-12-06T16:36:57.838Z,100243.16
2022-12-06T16:39:28.628Z,100218.13
2022-12-06T16:41:55.890Z,100239.00
2022-12-06T16:44:22.967Z,100247.47
2022-12-06T16:46:50.662Z,100231.06
2022-12-06T16:49:47.021Z,100216.03
2022-12-06T16:52:16.182Z,100222.56
2022-12-06T16:54:44.236Z,100236.78
2022-12-06T16:57:13.290Z,100229.94
2022-12-06T16:59:44.960Z,100236.06
2022-12-06T17:02:30.967Z,100236.88
2022-12-06T17:05:01.929Z,100232.44
2022-12-06T17:07:31.937Z,100232.72
2022-12-06T17:10:01.164Z,100237.88
2022-12-06T17:12:31.621Z,100227.84
2022-12-06T17:15:03.526Z,100219.50
2022-12-06T17:17:39.607Z,100222.28
2022-12-06T17:20:11.713Z,100225.06
2022-12-06T17:22:41.223Z,100217.16
2022-12-06T17:25:12.711Z,100236.34
2022-12-06T17:27:46.811Z,100211.59
2022-12-06T17:30:19.226Z,100216.19
2022-12-06T17:32:47.761Z,100209.78
2022-12-06T17:35:17.828Z,100222.72
2022-12-06T17:37:47.029Z,100214.38
2022-12-06T17:40:14.885Z,100218.69
2022-12-06T17:43:00.578Z,100206.59
2022-12-06T17:45:32.718Z,100225.09
2022-12-06T17:48:00.254Z,100208.38
2022-12-06T17:50:30.272Z,100206.88
2022-12-06T17:52:57.380Z,100226.19
2022-12-06T17:55:26.453Z,100202.84
2022-12-06T17:58:01.286Z,100199.50
2022-12-06T18:00:37.896Z,100183.78
2022-12-06T18:03:05.674Z,100214.22
2022-12-06T18:05:35.655Z,100204.22
2022-12-06T18:08:03.024Z,100193.94
2022-12-06T18:10:33.393Z,100206.59
2022-12-06T18:13:02.724Z,100188.66
2022-12-06T18:15:39.140Z,100205.47
2022-12-06T18:18:09.352Z,100197.41
2022-12-06T18:20:39.987Z,100187.66
2022-12-06T18:23:10.481Z,100206.97
2022-12-06T18:25:40.242Z,100202.41
2022-12-06T18:28:07.510Z,100192.25
2022-12-06T18:30:34.771Z,100207.94
2022-12-06T18:33:03.152Z,100207.81
2022-12-06T18:35:30.328Z,100198.63
2022-12-06T18:37:57.371Z,100191.81
2022-12-06T18:40:27.113Z,100185.03
2022-12-06T18:42:54.292Z,100195.19
2022-12-06T18:45:21.451Z,100203.25
2022-12-06T18:47:48.592Z,100189.47
2022-12-06T18:50:16.255Z,100199.34
2022-12-06T18:52:43.239Z,100184.88
2022-12-06T18:55:14.240Z,100189.31
2022-12-06T18:57:41.643Z,100196.81
2022-12-06T19:00:09.387Z,100198.75
2022-12-06T19:02:36.567Z,100169.84
2022-12-06T19:05:04.147Z,100177.91
2022-12-06T19:07:31.443Z,100190.97
2022-12-06T19:09:58.416Z,100178.31
2022-12-06T19:12:25.462Z,100184.28
2022-12-06T19:14:55.995Z,100170.41
2022-12-06T19:17:23.230Z,100177.34
2022-12-06T19:19:52.293Z,100161.91
2022-12-06T19:22:19.380Z,100182.91
2022-12-06T19:24:46.373Z,100164.97
2022-12-06T19:27:13.695Z,100182.75
2022-12-06T19:29:40.720Z,100164.84
2022-12-06T19:32:07.736Z,100168.31
2022-12-06T19:34:34.704Z,100156.09
2022-12-06T19:37:01.930Z,100156.94
2022-12-06T19:39:29.073Z,100157.63
2022-12-06T19:42:14.596Z,100161.66
2022-12-06T19:44:44.959Z,100168.31
2022-12-06T19:47:14.058Z,100165.94
2022-12-06T19:52:32.480Z,100165.81
2022-12-06T19:54:59.385Z,100156.09
2022-12-06T19:57:36.389Z,100158.19
2022-12-06T20:00:04.846Z,100147.34
2022-12-06T20:02:39.595Z,100151.50
2022-12-06T20:05:09.766Z,100153.88
2022-12-06T20:07:40.385Z,100145.41
2022-12-06T20:10:09.097Z,100146.50
2022-12-06T20:12:36.082Z,100163.31
2022-12-06T20:15:03.223Z,100153.72
2022-12-06T20:17:31.899Z,100147.59
2022-12-06T20:20:04.304Z,100156.03
2022-12-06T20:22:31.429Z,100155.34
2022-12-06T20:24:58.374Z,100156.03
2022-12-06T20:27:45.496Z,100166.16
2022-12-06T20:30:13.352Z,100155.06
2022-12-06T20:32:42.188Z,100149.50
2022-12-06T20:35:09.502Z,100156.84
2022-12-06T20:37:39.538Z,100152.56
2022-12-06T20:40:08.464Z,100174.47
2022-12-06T20:42:35.601Z,100159.91
2022-12-06T20:45:03.190Z,100153.94
2022-12-06T20:47:30.721Z,100148.16
2022-12-06T20:49:58.353Z,100137.34
2022-12-06T20:52:25.969Z,100150.28
2022-12-06T20:54:55.715Z,100149.69
2022-12-06T20:57:22.966Z,100157.75
2022-12-06T20:59:50.097Z,100139.81
2022-12-06T21:02:18.196Z,100166.19
2022-12-06T21:04:47.850Z,100163.00
2022-12-06T21:07:14.808Z,100172.13
2022-12-06T21:09:41.773Z,100152.13
2022-12-06T21:12:08.726Z,100156.97
2022-12-06T21:14:35.760Z,100167.66
2022-12-06T21:17:02.716Z,100162.88
2022-12-06T21:19:29.881Z,100160.50
2022-12-06T21:21:59.688Z,100147.59
2022-12-06T21:24:33.839Z,100149.41
2022-12-06T21:27:01.057Z,100148.69
2022-12-06T21:29:30.878Z,100153.97
2022-12-06T21:32:01.679Z,100152.69
2022-12-06T21:34:29.176Z,100146.53
2022-12-06T21:36:56.558Z,100144.84
2022-12-06T21:39:26.156Z,100140.53
2022-12-06T21:41:54.101Z,100152.38
2022-12-06T21:44:21.028Z,100151.56
2022-12-06T21:46:51.779Z,100153.59
2022-12-06T21:49:19.226Z,100158.03
2022-12-06T21:51:46.269Z,100144.53
2022-12-06T21:54:13.210Z,100145.38
2022-12-06T21:56:42.322Z,100156.88
2022-12-06T21:59:12.049Z,100158.66
2022-12-06T22:01:39.415Z,100139.53
2022-12-06T22:04:06.550Z,100162.53
2022-12-06T22:06:35.869Z,100155.72
2022-12-06T22:09:05.837Z,100139.59
2022-12-06T22:11:34.634Z,100149.88
2022-12-06T22:14:11.721Z,100150.84
2022-12-06T22:16:38.641Z,100160.69
2022-12-06T22:19:05.755Z,100166.66
2022-12-06T22:21:33.596Z,100157.09
2022-12-06T22:24:00.647Z,100159.13
2022-12-06T22:26:30.001Z,100167.63
2022-12-06T22:28:59.710Z,100167.63
2022-12-06T22:31:33.594Z,100163.19
2022-12-06T22:34:01.365Z,100151.81
2022-12-06T22:36:29.049Z,100145.59
2022-12-06T22:38:58.345Z,100162.34
2022-12-06T22:41:26.235Z,100148.34
2022-12-06T22:43:56.795Z,100154.31
2022-12-06T22:46:26.443Z,100149.75
2022-12-06T22:48:54.404Z,100154.06
2022-12-06T22:51:22.757Z,100148.53
2022-12-06T22:53:55.793Z,100157.25
2022-12-06T22:56:24.805Z,100153.78
2022-12-06T22:58:53.253Z,100157.13
2022-12-06T23:01:22.436Z,100159.63
2022-12-06T23:03:51.500Z,100159.63
2022-12-06T23:06:21.220Z,100163.41
2022-12-06T23:08:48.569Z,100165.22
2022-12-06T23:11:18.101Z,100159.72
2022-12-06T23:13:45.209Z,100157.19
2022-12-06T23:16:20.639Z,100155.28
2022-12-06T23:18:48.552Z,100147.38
2022-12-06T23:21:22.007Z,100150.84
2022-12-06T23:23:53.354Z,100156.13
2022-12-06T23:26:23.111Z,100146.66
2022-12-06T23:28:50.733Z,100153.47
2022-12-06T23:31:24.059Z,100147.38
2022-12-06T23:34:16.723Z,100145.94
2022-12-06T23:36:44.253Z,100159.81
2022-12-06T23:39:11.570Z,100153.13
2022-12-06T23:41:38.539Z,100151.72
2022-12-06T23:44:06.581Z,100148.00
2022-12-06T23:46:38.311Z,100159.50
2022-12-06T23:49:06.431Z,100149.94
2022-12-06T23:51:37.924Z,100150.63
2022-12-06T23:54:07.407Z,100143.13
2022-12-06T23:56:38.021Z,100162.13
2022-12-06T23:59:06.939Z,100155.47
